sensor_id;sensor_type;location;lat;lon;timestamp;pressure;altitude;pressure_sealevel;temperature;humidity
47738;BME280;33502;47.182;27.506;2023-05-02T00:00:50;100857.22;;;4.52;100.00
47738;BME280;33502;47.182;27.506;2023-05-02T00:03:16;100860.69;;;4.57;100.00
47738;BME280;33502;47.182;27.506;2023-05-02T00:05:41;100858.06;;;4.56;100.00
47738;BME280;33502;47.182;27.506;2023-05-02T00:08:07;100858.16;;;4.46;100.00
47738;BME280;33502;47.182;27.506;2023-05-02T00:10:33;100856.47;;;4.41;100.00
47738;BME280;33502;47.182;27.506;2023-05-02T00:12:59;100859.94;;;4.43;100.00
47738;BME280;33502;47.182;27.506;2023-05-02T00:15:24;100863.44;;;4.42;100.00
47738;BME280;33502;47.182;27.506;2023-05-02T00:17:51;100868.72;;;4.39;100.00
47738;BME280;33502;47.182;27.506;2023-05-02T00:20:17;100867.91;;;4.30;100.00
47738;BME280;33502;47.182;27.506;2023-05-02T00:22:43;100874.09;;;4.23;100.00
47738;BME280;33502;47.182;27.506;2023-05-02T00:25:08;100875.00;;;4.21;100.00
47738;BME280;33502;47.182;27.506;2023-05-02T00:27:34;100877.63;;;4.18;100.00
47738;BME280;33502;47.182;27.506;2023-05-02T00:30:00;100874.19;;;4.11;100.00
47738;BME280;33502;47.182;27.506;2023-05-02T00:32:26;100876.88;;;4.03;100.00
47738;BME280;33502;47.182;27.506;2023-05-02T00:34:52;100881.25;;;3.98;100.00
47738;BME280;33502;47.182;27.506;2023-05-02T00:37:18;100885.69;;;3.88;100.00
47738;BME280;33502;47.182;27.506;2023-05-02T00:39:43;100885.75;;;3.79;100.00
47738;BME280;33502;47.182;27.506;2023-05-02T00:42:09;100880.56;;;3.70;100.00
47738;BME280;33502;47.182;27.506;2023-05-02T00:44:35;100877.97;;;3.65;100.00
47738;BME280;33502;47.182;27.506;2023-05-02T00:47:00;100881.50;;;3.58;100.00
47738;BME280;33502;47.182;27.506;2023-05-02T00:49:26;100887.63;;;3.56;100.00
47738;BME280;33502;47.182;27.506;2023-05-02T00:51:52;100880.59;;;3.59;100.00
47738;BME280;33502;47.182;27.506;2023-05-02T00:54:18;100884.97;;;3.60;100.00
47738;BME280;33502;47.182;27.506;2023-05-02T00:56:43;100880.63;;;3.56;100.00
47738;BME280;33502;47.182;27.506;2023-05-02T00:59:09;100876.25;;;3.57;100.00
47738;BME280;33502;47.182;27.506;2023-05-02T01:04:19;100879.84;;;3.40;100.00
47738;BME280;33502;47.182;27.506;2023-05-02T01:07:05;100884.25;;;3.29;100.00
47738;BME280;33502;47.182;27.506;2023-05-02T01:09:45;100882.53;;;3.22;100.00
47738;BME280;33502;47.182;27.506;2023-05-02T01:12:58;100884.28;;;3.15;100.00
47738;BME280;33502;47.182;27.506;2023-05-02T01:14:58;100881.69;;;3.09;100.00
47738;BME280;33502;47.182;27.506;2023-05-02T01:17:27;100878.19;;;3.13;100.00
47738;BME280;33502;47.182;27.506;2023-05-02T01:19:58;100882.56;;;3.11;100.00
47738;BME280;33502;47.182;27.506;2023-05-02T01:22:26;100880.81;;;3.08;100.00
47738;BME280;33502;47.182;27.506;2023-05-02T01:27:23;100874.72;;;3.06;100.00
47738;BME280;33502;47.182;27.506;2023-05-02T01:29:52;100881.72;;;3.03;100.00
47738;BME280;33502;47.182;27.506;2023-05-02T01:32:19;100876.47;;;3.00;100.00
47738;BME280;33502;47.182;27.506;2023-05-02T01:34:47;100873.88;;;2.95;100.00
47738;BME280;33502;47.182;27.506;2023-05-02T01:37:14;100866.94;;;2.91;100.00
47738;BME280;33502;47.182;27.506;2023-05-02T01:39:41;100859.94;;;2.91;100.00
47738;BME280;33502;47.182;27.506;2023-05-02T01:42:08;100858.19;;;2.95;100.00
47738;BME280;33502;47.182;27.506;2023-05-02T01:44:35;100858.19;;;2.93;100.00
47738;BME280;33502;47.182;27.506;2023-05-02T01:49:28;100861.66;;;2.99;100.00
47738;BME280;33502;47.182;27.506;2023-05-02T01:51:53;100859.91;;;2.98;100.00
47738;BME280;33502;47.182;27.506;2023-05-02T01:54:20;100859.91;;;2.96;100.00
47738;BME280;33502;47.182;27.506;2023-05-02T01:56:47;100864.31;;;2.91;100.00
47738;BME280;33502;47.182;27.506;2023-05-02T01:59:16;100849.47;;;2.88;100.00
47738;BME280;33502;47.182;27.506;2023-05-02T02:01:42;100854.72;;;2.88;100.00
47738;BME280;33502;47.182;27.506;2023-05-02T02:04:10;100859.91;;;2.96;100.00
47738;BME280;33502;47.182;27.506;2023-05-02T02:06:36;100854.69;;;2.99;100.00
47738;BME280;33502;47.182;27.506;2023-05-02T02:09:02;100859.91;;;3.07;100.00
47738;BME280;33502;47.182;27.506;2023-05-02T02:11:35;100856.34;;;3.22;100.00
47738;BME280;33502;47.182;27.506;2023-05-02T02:14:10;100858.03;;;3.30;100.00
47738;BME280;33502;47.182;27.506;2023-05-02T02:16:37;100854.56;;;3.33;100.00
47738;BME280;33502;47.182;27.506;2023-05-02T02:19:06;100858.91;;;3.36;100.00
47738;BME280;33502;47.182;27.506;2023-05-02T02:21:33;100860.63;;;3.38;100.00
47738;BME280;33502;47.182;27.506;2023-05-02T02:23:59;100858.94;;;3.32;100.00
47738;BME280;33502;47.182;27.506;2023-05-02T02:26:26;100863.28;;;3.30;100.00
47738;BME280;33502;47.182;27.506;2023-05-02T02:28:51;100862.44;;;3.25;100.00
47738;BME280;33502;47.182;27.506;2023-05-02T02:31:19;100863.31;;;3.24;100.00
47738;BME280;33502;47.182;27.506;2023-05-02T02:33:44;100875.53;;;3.25;100.00
47738;BME280;33502;47.182;27.506;2023-05-02T02:38:47;100865.09;;;3.16;100.00
47738;BME280;33502;47.182;27.506;2023-05-02T02:41:20;100872.06;;;3.20;100.00
47738;BME280;33502;47.182;27.506;2023-05-02T02:43:57;100872.03;;;3.25;100.00
47738;BME280;33502;47.182;27.506;2023-05-02T02:46:30;100873.78;;;3.26;100.00
47738;BME280;33502;47.182;27.506;2023-05-02T02:49:46;100873.78;;;3.24;100.00
47738;BME280;33502;47.182;27.506;2023-05-02T02:54:23;100877.31;;;3.09;100.00
47738;BME280;33502;47.182;27.506;2023-05-02T02:56:54;100874.72;;;3.06;100.00
47738;BME280;33502;47.182;27.506;2023-05-02T02:59:25;100877.31;;;3.09;100.00
47738;BME280;33502;47.182;27.506;2023-05-02T03:01:55;100874.72;;;3.08;100.00
47738;BME280;33502;47.182;27.506;2023-05-02T03:04:23;100881.69;;;3.09;100.00
47738;BME280;33502;47.182;27.506;2023-05-02T03:06:50;100877.28;;;3.19;100.00
47738;BME280;33502;47.182;27.506;2023-05-02T03:09:16;100872.03;;;3.31;100.00
47738;BME280;33502;47.182;27.506;2023-05-02T03:11:43;100870.25;;;3.39;100.00
47738;BME280;33502;47.182;27.506;2023-05-02T03:14:11;100872.81;;;3.44;100.00
47738;BME280;33502;47.182;27.506;2023-05-02T03:16:40;100879.81;;;3.46;100.00
47738;BME280;33502;47.182;27.506;2023-05-02T03:19:10;100880.69;;;3.47;100.00
47738;BME280;33502;47.182;27.506;2023-05-02T03:21:36;100885.06;;;3.48;100.00
47738;BME280;33502;47.182;27.506;2023-05-02T03:24:11;100892.00;;;3.52;100.00
47738;BME280;33502;47.182;27.506;2023-05-02T03:26:37;100884.97;;;3.62;100.00
47738;BME280;33502;47.182;27.506;2023-05-02T03:29:05;100891.03;;;3.70;100.00
47738;BME280;33502;47.182;27.506;2023-05-02T03:31:36;100891.88;;;3.77;100.00
47738;BME280;33502;47.182;27.506;2023-05-02T03:34:02;100895.31;;;3.80;100.00
47738;BME280;33502;47.182;27.506;2023-05-02T03:36:28;100895.31;;;3.88;100.00
47738;BME280;33502;47.182;27.506;2023-05-02T03:38:54;100910.09;;;3.98;100.00
47738;BME280;33502;47.182;27.506;2023-05-02T03:41:20;100909.13;;;4.08;100.00
47738;BME280;33502;47.182;27.506;2023-05-02T03:43:51;100916.03;;;4.22;100.00
47738;BME280;33502;47.182;27.506;2023-05-02T03:46:20;100916.81;;;4.38;100.00
47738;BME280;33502;47.182;27.506;2023-05-02T03:48:46;100923.69;;;4.51;100.00
47738;BME280;33502;47.182;27.506;2023-05-02T03:51:12;100922.72;;;4.63;100.00
47738;BME280;33502;47.182;27.506;2023-05-02T03:53:42;100929.59;;;4.76;100.00
47738;BME280;33502;47.182;27.506;2023-05-02T03:56:08;100934.72;;;4.88;100.00
47738;BME280;33502;47.182;27.506;2023-05-02T03:58:43;100924.06;;;5.04;100.00
47738;BME280;33502;47.182;27.506;2023-05-02T04:01:13;100924.72;;;5.24;100.00
47738;BME280;33502;47.182;27.506;2023-05-02T04:03:41;100926.97;;;5.57;100.00
47738;BME280;33502;47.182;27.506;2023-05-02T04:06:08;100928.19;;;5.99;100.00
47738;BME280;33502;47.182;27.506;2023-05-02T04:08:34;100926.59;;;6.48;100.00
47738;BME280;33502;47.182;27.506;2023-05-02T04:11:00;100921.34;;;6.98;100.00
47738;BME280;33502;47.182;27.506;2023-05-02T04:13:27;100915.22;;;7.41;100.00
47738;BME280;33502;47.182;27.506;2023-05-02T04:15:55;100929.31;;;7.83;100.00
47738;BME280;33502;47.182;27.506;2023-05-02T04:18:23;100931.56;;;8.38;100.00
47738;BME280;33502;47.182;27.506;2023-05-02T04:20:49;100926.41;;;9.04;100.00
47738;BME280;33502;47.182;27.506;2023-05-02T04:23:16;100923.13;;;9.88;100.00
47738;BME280;33502;47.182;27.506;2023-05-02T04:25:51;100930.56;;;10.88;100.00
47738;BME280;33502;47.182;27.506;2023-05-02T04:28:17;100929.38;;;11.94;100.00
47738;BME280;33502;47.182;27.506;2023-05-02T04:30:43;100926.63;;;12.84;97.53
47738;BME280;33502;47.182;27.506;2023-05-02T04:33:11;100930.97;;;13.67;90.11
47738;BME280;33502;47.182;27.506;2023-05-02T04:35:40;100922.44;;;14.35;82.82
47738;BME280;33502;47.182;27.506;2023-05-02T04:38:07;100928.34;;;14.95;74.37
47738;BME280;33502;47.182;27.506;2023-05-02T04:40:33;100928.94;;;15.35;68.49
47738;BME280;33502;47.182;27.506;2023-05-02T04:43:03;100932.00;;;15.61;65.19
47738;BME280;33502;47.182;27.506;2023-05-02T04:45:37;100931.03;;;16.27;64.69
47738;BME280;33502;47.182;27.506;2023-05-02T04:48:08;100936.47;;;16.72;63.55
47738;BME280;33502;47.182;27.506;2023-05-02T04:50:34;100936.06;;;17.10;59.44
47738;BME280;33502;47.182;27.506;2023-05-02T04:52:59;100936.81;;;17.12;59.55
47738;BME280;33502;47.182;27.506;2023-05-02T04:55:26;100932.00;;;17.76;59.63
47738;BME280;33502;47.182;27.506;2023-05-02T04:57:52;100929.22;;;18.33;56.95
47738;BME280;33502;47.182;27.506;2023-05-02T05:00:18;100934.88;;;18.83;53.00
47738;BME280;33502;47.182;27.506;2023-05-02T05:02:43;100930.13;;;19.27;51.72
47738;BME280;33502;47.182;27.506;2023-05-02T05:05:11;100931.09;;;19.64;50.53
47738;BME280;33502;47.182;27.506;2023-05-02T05:07:37;100931.06;;;19.90;49.60
47738;BME280;33502;47.182;27.506;2023-05-02T05:10:03;100929.88;;;19.94;46.23
47738;BME280;33502;47.182;27.506;2023-05-02T05:12:36;100932.16;;;19.87;46.71
47738;BME280;33502;47.182;27.506;2023-05-02T05:15:02;100939.47;;;20.22;45.33
47738;BME280;33502;47.182;27.506;2023-05-02T05:17:29;100932.84;;;20.39;45.15
47738;BME280;33502;47.182;27.506;2023-05-02T05:19:55;100949.16;;;20.49;44.54
47738;BME280;33502;47.182;27.506;2023-05-02T05:22:21;100945.09;;;20.43;44.36
47738;BME280;33502;47.182;27.506;2023-05-02T05:24:50;100947.34;;;20.73;43.12
47738;BME280;33502;47.182;27.506;2023-05-02T05:27:16;100944.28;;;20.78;43.22
47738;BME280;33502;47.182;27.506;2023-05-02T05:29:41;100945.06;;;20.91;42.63
47738;BME280;33502;47.182;27.506;2023-05-02T05:32:07;100950.41;;;21.16;41.44
47738;BME280;33502;47.182;27.506;2023-05-02T05:34:33;100952.94;;;21.53;41.49
47738;BME280;33502;47.182;27.506;2023-05-02T05:37:00;100950.88;;;22.01;39.91
47738;BME280;33502;47.182;27.506;2023-05-02T05:39:26;100942.38;;;22.17;39.85
47738;BME280;33502;47.182;27.506;2023-05-02T05:41:54;100943.84;;;22.33;38.78
47738;BME280;33502;47.182;27.506;2023-05-02T05:44:22;100942.94;;;22.55;38.12
47738;BME280;33502;47.182;27.506;2023-05-02T05:46:49;100948.56;;;22.84;38.18
47738;BME280;33502;47.182;27.506;2023-05-02T05:49:17;100936.56;;;23.09;38.81
47738;BME280;33502;47.182;27.506;2023-05-02T05:51:43;100939.00;;;23.64;37.61
47738;BME280;33502;47.182;27.506;2023-05-02T05:54:09;100945.31;;;24.05;36.82
47738;BME280;33502;47.182;27.506;2023-05-02T05:56:36;100949.06;;;24.33;35.63
47738;BME280;33502;47.182;27.506;2023-05-02T05:59:08;100945.44;;;24.93;34.77
47738;BME280;33502;47.182;27.506;2023-05-02T06:01:33;100953.97;;;25.08;34.34
47738;BME280;33502;47.182;27.506;2023-05-02T06:04:01;100956.06;;;25.53;33.38
47738;BME280;33502;47.182;27.506;2023-05-02T06:06:30;100949.50;;;25.83;32.76
47738;BME280;33502;47.182;27.506;2023-05-02T06:08:59;100951.41;;;25.73;32.93
47738;BME280;33502;47.182;27.506;2023-05-02T06:11:25;100949.19;;;25.86;32.66
47738;BME280;33502;47.182;27.506;2023-05-02T06:13:51;100955.06;;;25.44;32.82
47738;BME280;33502;47.182;27.506;2023-05-02T06:16:18;100950.75;;;25.61;32.54
47738;BME280;33502;47.182;27.506;2023-05-02T06:18:44;100948.81;;;25.44;31.78
47738;BME280;33502;47.182;27.506;2023-05-02T06:21:10;100953.34;;;25.53;32.67
47738;BME280;33502;47.182;27.506;2023-05-02T06:23:36;100958.56;;;25.74;31.05
47738;BME280;33502;47.182;27.506;2023-05-02T06:26:02;100949.56;;;25.64;31.76
47738;BME280;33502;47.182;27.506;2023-05-02T06:28:28;100960.34;;;25.46;31.47
47738;BME280;33502;47.182;27.506;2023-05-02T06:31:00;100955.28;;;25.70;31.67
47738;BME280;33502;47.182;27.506;2023-05-02T06:33:26;100959.97;;;26.33;31.04
47738;BME280;33502;47.182;27.506;2023-05-02T06:35:52;100955.22;;;26.81;29.77
47738;BME280;33502;47.182;27.506;2023-05-02T06:38:18;100955.97;;;26.91;29.82
47738;BME280;33502;47.182;27.506;2023-05-02T06:40:44;100953.91;;;26.85;30.30
47738;BME280;33502;47.182;27.506;2023-05-02T06:43:10;100955.75;;;26.67;29.70
47738;BME280;33502;47.182;27.506;2023-05-02T06:45:36;100954.06;;;26.38;30.57
47738;BME280;33502;47.182;27.506;2023-05-02T06:48:01;100953.03;;;26.67;29.93
47738;BME280;33502;47.182;27.506;2023-05-02T06:50:27;100956.28;;;26.88;29.24
47738;BME280;33502;47.182;27.506;2023-05-02T06:52:53;100949.66;;;27.27;28.73
47738;BME280;33502;47.182;27.506;2023-05-02T06:55:19;100956.72;;;27.02;28.23
47738;BME280;33502;47.182;27.506;2023-05-02T06:57:45;100956.53;;;26.95;28.37
47738;BME280;33502;47.182;27.506;2023-05-02T07:00:11;100960.56;;;26.91;28.16
47738;BME280;33502;47.182;27.506;2023-05-02T07:02:37;100962.03;;;26.67;28.34
47738;BME280;33502;47.182;27.506;2023-05-02T07:05:03;100962.69;;;26.79;28.42
47738;BME280;33502;47.182;27.506;2023-05-02T07:07:29;100960.69;;;27.07;28.72
47738;BME280;33502;47.182;27.506;2023-05-02T07:09:54;100956.81;;;27.28;28.88
47738;BME280;33502;47.182;27.506;2023-05-02T07:12:20;100954.66;;;27.66;29.08
47738;BME280;33502;47.182;27.506;2023-05-02T07:14:45;100960.22;;;27.30;28.46
47738;BME280;33502;47.182;27.506;2023-05-02T07:17:11;100952.19;;;26.66;28.89
47738;BME280;33502;47.182;27.506;2023-05-02T07:19:37;100958.66;;;27.09;29.15
47738;BME280;33502;47.182;27.506;2023-05-02T07:22:02;100959.00;;;27.50;28.31
47738;BME280;33502;47.182;27.506;2023-05-02T07:24:28;100961.94;;;27.91;29.21
47738;BME280;33502;47.182;27.506;2023-05-02T07:26:54;100961.72;;;28.19;28.22
47738;BME280;33502;47.182;27.506;2023-05-02T07:29:19;100966.31;;;28.19;27.48
47738;BME280;33502;47.182;27.506;2023-05-02T07:31:45;100965.84;;;27.89;25.43
47738;BME280;33502;47.182;27.506;2023-05-02T07:34:11;100959.59;;;27.18;26.81
47738;BME280;33502;47.182;27.506;2023-05-02T07:36:36;100967.94;;;26.63;28.71
47738;BME280;33502;47.182;27.506;2023-05-02T07:39:02;100961.88;;;26.69;26.45
47738;BME280;33502;47.182;27.506;2023-05-02T07:41:28;100972.28;;;26.00;27.05
47738;BME280;33502;47.182;27.506;2023-05-02T07:43:53;100962.38;;;25.71;26.77
47738;BME280;33502;47.182;27.506;2023-05-02T07:46:20;100967.25;;;25.68;26.72
47738;BME280;33502;47.182;27.506;2023-05-02T07:48:45;100977.56;;;25.54;26.21
47738;BME280;33502;47.182;27.506;2023-05-02T07:51:11;100969.28;;;25.56;27.49
47738;BME280;33502;47.182;27.506;2023-05-02T07:53:37;100962.19;;;25.92;26.95
47738;BME280;33502;47.182;27.506;2023-05-02T07:56:03;100962.13;;;26.75;26.34
47738;BME280;33502;47.182;27.506;2023-05-02T07:58:30;100968.94;;;26.62;26.15
47738;BME280;33502;47.182;27.506;2023-05-02T08:00:56;100971.66;;;26.16;26.53
47738;BME280;33502;47.182;27.506;2023-05-02T08:03:21;100980.69;;;26.34;26.29
47738;BME280;33502;47.182;27.506;2023-05-02T08:05:47;100977.91;;;26.44;26.25
47738;BME280;33502;47.182;27.506;2023-05-02T08:08:13;100969.94;;;26.43;26.55
47738;BME280;33502;47.182;27.506;2023-05-02T08:10:38;100971.75;;;27.06;27.25
47738;BME280;33502;47.182;27.506;2023-05-02T08:13:04;100968.34;;;27.48;26.22
47738;BME280;33502;47.182;27.506;2023-05-02T08:15:30;100967.09;;;27.42;26.29
47738;BME280;33502;47.182;27.506;2023-05-02T08:17:56;100970.88;;;27.49;25.90
47738;BME280;33502;47.182;27.506;2023-05-02T08:20:21;100983.88;;;27.38;25.75
47738;BME280;33502;47.182;27.506;2023-05-02T08:22:47;100974.34;;;27.60;26.24
47738;BME280;33502;47.182;27.506;2023-05-02T08:25:13;100975.69;;;27.29;26.33
47738;BME280;33502;47.182;27.506;2023-05-02T08:27:38;100970.38;;;27.46;27.06
47738;BME280;33502;47.182;27.506;2023-05-02T08:30:04;100978.25;;;26.95;27.32
47738;BME280;33502;47.182;27.506;2023-05-02T08:32:31;100967.28;;;27.05;26.75
47738;BME280;33502;47.182;27.506;2023-05-02T08:34:56;100970.50;;;26.64;26.65
47738;BME280;33502;47.182;27.506;2023-05-02T08:37:22;100967.50;;;26.40;26.97
47738;BME280;33502;47.182;27.506;2023-05-02T08:39:48;100965.75;;;26.84;26.52
47738;BME280;33502;47.182;27.506;2023-05-02T08:42:13;100958.94;;;27.42;26.31
47738;BME280;33502;47.182;27.506;2023-05-02T08:44:39;100963.53;;;27.24;25.80
47738;BME280;33502;47.182;27.506;2023-05-02T08:47:05;100964.34;;;27.16;26.85
47738;BME280;33502;47.182;27.506;2023-05-02T08:49:31;100959.50;;;26.66;26.01
47738;BME280;33502;47.182;27.506;2023-05-02T08:52:00;100945.84;;;26.48;26.58
47738;BME280;33502;47.182;27.506;2023-05-02T08:54:26;100950.38;;;26.57;26.82
47738;BME280;33502;47.182;27.506;2023-05-02T08:56:53;100951.50;;;26.36;26.95
47738;BME280;33502;47.182;27.506;2023-05-02T08:59:19;100950.84;;;26.88;26.58
47738;BME280;33502;47.182;27.506;2023-05-02T09:01:44;100954.88;;;26.84;27.79
47738;BME280;33502;47.182;27.506;2023-05-02T09:04:12;100954.16;;;25.91;27.79
47738;BME280;33502;47.182;27.506;2023-05-02T09:06:39;100949.78;;;25.43;28.00
47738;BME280;33502;47.182;27.506;2023-05-02T09:09:05;100948.63;;;25.55;28.10
47738;BME280;33502;47.182;27.506;2023-05-02T09:11:31;100943.25;;;25.45;28.02
47738;BME280;33502;47.182;27.506;2023-05-02T09:13:57;100946.41;;;25.31;28.00
47738;BME280;33502;47.182;27.506;2023-05-02T09:16:28;100946.84;;;24.97;29.09
47738;BME280;33502;47.182;27.506;2023-05-02T09:18:54;100949.53;;;24.38;29.89
47738;BME280;33502;47.182;27.506;2023-05-02T09:21:21;100955.13;;;23.96;29.48
47738;BME280;33502;47.182;27.506;2023-05-02T09:23:48;100934.78;;;24.02;29.74
47738;BME280;33502;47.182;27.506;2023-05-02T09:31:09;100942.31;;;23.68;29.75
47738;BME280;33502;47.182;27.506;2023-05-02T09:33:35;100927.91;;;23.67;29.64
47738;BME280;33502;47.182;27.506;2023-05-02T09:36:01;100938.97;;;23.54;29.98
47738;BME280;33502;47.182;27.506;2023-05-02T09:38:28;100933.72;;;23.62;29.91
47738;BME280;33502;47.182;27.506;2023-05-02T09:40:54;100920.94;;;23.64;30.47
47738;BME280;33502;47.182;27.506;2023-05-02T09:43:22;100926.44;;;23.84;30.48
47738;BME280;33502;47.182;27.506;2023-05-02T09:46:01;100923.22;;;23.69;30.83
47738;BME280;33502;47.182;27.506;2023-05-02T09:48:27;100918.53;;;23.92;30.13
47738;BME280;33502;47.182;27.506;2023-05-02T09:50:53;100923.75;;;23.84;30.41
47738;BME280;33502;47.182;27.506;2023-05-02T09:53:20;100926.75;;;23.81;30.32
47738;BME280;33502;47.182;27.506;2023-05-02T09:55:46;100906.84;;;23.30;31.12
47738;BME280;33502;47.182;27.506;2023-05-02T09:58:21;100927.66;;;23.39;31.31
47738;BME280;33502;47.182;27.506;2023-05-02T10:00:47;100912.69;;;23.35;31.42
47738;BME280;33502;47.182;27.506;2023-05-02T10:03:15;100918.06;;;23.56;30.25
47738;BME280;33502;47.182;27.506;2023-05-02T10:05:40;100907.31;;;23.76;30.62
47738;BME280;33502;47.182;27.506;2023-05-02T10:08:07;100904.69;;;23.86;30.83
47738;BME280;33502;47.182;27.506;2023-05-02T10:10:37;100918.38;;;23.32;29.58
47738;BME280;33502;47.182;27.506;2023-05-02T10:13:03;100915.38;;;23.87;30.53
47738;BME280;33502;47.182;27.506;2023-05-02T10:15:32;100916.72;;;24.12;29.96
47738;BME280;33502;47.182;27.506;2023-05-02T10:17:59;100910.28;;;24.03;29.56
47738;BME280;33502;47.182;27.506;2023-05-02T10:20:32;100912.72;;;23.76;30.00
47738;BME280;33502;47.182;27.506;2023-05-02T10:22:59;100897.53;;;24.35;29.95
47738;BME280;33502;47.182;27.506;2023-05-02T10:25:26;100904.34;;;24.19;29.49
47738;BME280;33502;47.182;27.506;2023-05-02T10:27:53;100907.19;;;24.18;29.91
47738;BME280;33502;47.182;27.506;2023-05-02T10:30:20;100900.72;;;23.99;29.12
47738;BME280;33502;47.182;27.506;2023-05-02T10:32:46;100902.13;;;23.94;29.97
47738;BME280;33502;47.182;27.506;2023-05-02T10:35:13;100906.56;;;23.95;30.55
47738;BME280;33502;47.182;27.506;2023-05-02T10:37:40;100899.88;;;23.99;30.06
47738;BME280;33502;47.182;27.506;2023-05-02T10:40:10;100898.78;;;24.21;29.93
47738;BME280;33502;47.182;27.506;2023-05-02T10:42:37;100893.53;;;24.49;29.58
47738;BME280;33502;47.182;27.506;2023-05-02T10:45:04;100912.47;;;24.19;29.46
47738;BME280;33502;47.182;27.506;2023-05-02T10:47:34;100886.44;;;23.47;29.13
47738;BME280;33502;47.182;27.506;2023-05-02T10:50:01;100899.13;;;23.87;29.48
47738;BME280;33502;47.182;27.506;2023-05-02T10:55:13;100897.88;;;23.91;29.41
47738;BME280;33502;47.182;27.506;2023-05-02T11:00:24;100898.59;;;23.93;29.60
47738;BME280;33502;47.182;27.506;2023-05-02T11:02:50;100884.22;;;24.02;28.79
47738;BME280;33502;47.182;27.506;2023-05-02T11:05:16;100887.19;;;23.99;28.16
47738;BME280;33502;47.182;27.506;2023-05-02T11:07:42;100889.53;;;24.14;27.97
47738;BME280;33502;47.182;27.506;2023-05-02T11:15:14;100878.53;;;23.65;28.99
47738;BME280;33502;47.182;27.506;2023-05-02T11:20:25;100885.53;;;23.68;29.43
47738;BME280;33502;47.182;27.506;2023-05-02T11:22:51;100888.63;;;23.63;29.74
47738;BME280;33502;47.182;27.506;2023-05-02T11:25:28;100874.56;;;24.19;29.08
47738;BME280;33502;47.182;27.506;2023-05-02T11:27:54;100875.69;;;24.17;29.74
47738;BME280;33502;47.182;27.506;2023-05-02T11:30:35;100881.41;;;24.23;29.99
47738;BME280;33502;47.182;27.506;2023-05-02T11:35:29;100878.59;;;24.64;28.00
47738;BME280;33502;47.182;27.506;2023-05-02T11:37:56;100875.31;;;24.70;27.70
47738;BME280;33502;47.182;27.506;2023-05-02T11:40:23;100872.47;;;24.72;27.94
47738;BME280;33502;47.182;27.506;2023-05-02T11:42:49;100862.91;;;24.38;27.54
47738;BME280;33502;47.182;27.506;2023-05-02T11:45:15;100873.56;;;24.11;28.06
47738;BME280;33502;47.182;27.506;2023-05-02T11:47:41;100885.22;;;24.01;28.20
47738;BME280;33502;47.182;27.506;2023-05-02T11:56:43;100855.06;;;24.16;27.79
47738;BME280;33502;47.182;27.506;2023-05-02T11:59:09;100855.34;;;24.81;28.11
47738;BME280;33502;47.182;27.506;2023-05-02T12:01:35;100853.66;;;24.31;28.13
47738;BME280;33502;47.182;27.506;2023-05-02T12:04:04;100851.78;;;24.22;28.32
47738;BME280;33502;47.182;27.506;2023-05-02T12:06:31;100853.63;;;24.51;28.56
47738;BME280;33502;47.182;27.506;2023-05-02T12:09:07;100849.78;;;24.83;28.17
47738;BME280;33502;47.182;27.506;2023-05-02T12:11:33;100848.59;;;25.05;28.01
47738;BME280;33502;47.182;27.506;2023-05-02T12:13:59;100837.47;;;25.08;28.18
47738;BME280;33502;47.182;27.506;2023-05-02T12:16:26;100845.97;;;24.46;28.08
47738;BME280;33502;47.182;27.506;2023-05-02T12:18:52;100840.25;;;24.30;29.10
47738;BME280;33502;47.182;27.506;2023-05-02T12:21:18;100840.84;;;24.62;28.90
47738;BME280;33502;47.182;27.506;2023-05-02T12:23:44;100836.97;;;24.75;28.87
47738;BME280;33502;47.182;27.506;2023-05-02T12:26:16;100848.09;;;24.62;27.54
47738;BME280;33502;47.182;27.506;2023-05-02T12:28:48;100840.53;;;24.46;28.16
47738;BME280;33502;47.182;27.506;2023-05-02T12:31:15;100839.81;;;24.73;28.22
47738;BME280;33502;47.182;27.506;2023-05-02T12:33:44;100842.69;;;24.62;29.48
47738;BME280;33502;47.182;27.506;2023-05-02T12:36:12;100837.69;;;24.48;28.94
47738;BME280;33502;47.182;27.506;2023-05-02T12:38:38;100828.59;;;24.10;28.41
47738;BME280;33502;47.182;27.506;2023-05-02T12:41:04;100823.56;;;24.15;29.08
47738;BME280;33502;47.182;27.506;2023-05-02T12:43:41;100839.97;;;24.13;29.41
47738;BME280;33502;47.182;27.506;2023-05-02T12:46:08;100842.69;;;24.13;28.29
47738;BME280;33502;47.182;27.506;2023-05-02T12:48:34;100822.28;;;23.90;28.51
47738;BME280;33502;47.182;27.506;2023-05-02T12:50:59;100832.13;;;24.10;27.54
47738;BME280;33502;47.182;27.506;2023-05-02T12:53:38;100826.22;;;23.76;28.93
47738;BME280;33502;47.182;27.506;2023-05-02T12:56:05;100821.81;;;23.84;28.33
47738;BME280;33502;47.182;27.506;2023-05-02T12:58:38;100826.56;;;23.92;29.01
47738;BME280;33502;47.182;27.506;2023-05-02T13:01:05;100826.38;;;23.84;27.97
47738;BME280;33502;47.182;27.506;2023-05-02T13:03:31;100812.81;;;23.64;27.65
47738;BME280;33502;47.182;27.506;2023-05-02T13:05:57;100818.88;;;24.17;27.99
47738;BME280;33502;47.182;27.506;2023-05-02T13:08:23;100816.63;;;24.22;28.62
47738;BME280;33502;47.182;27.506;2023-05-02T13:10:48;100811.63;;;24.27;28.70
47738;BME280;33502;47.182;27.506;2023-05-02T13:13:14;100822.88;;;24.13;28.57
47738;BME280;33502;47.182;27.506;2023-05-02T13:15:40;100814.19;;;24.09;29.36
47738;BME280;33502;47.182;27.506;2023-05-02T13:18:05;100817.00;;;23.88;28.12
47738;BME280;33502;47.182;27.506;2023-05-02T13:20:31;100809.22;;;24.14;28.57